sensor_id;sensor_type;location;lat;lon;timestamp;temperature;humidity
45868;DHT22;31582;45.490;7.860;2022-08-23T00:01:58;24.10;49.40
45868;DHT22;31582;45.490;7.860;2022-08-23T00:04:28;24.10;49.30
45868;DHT22;31582;45.490;7.860;2022-08-23T00:07:01;24.10;49.40
45868;DHT22;31582;45.490;7.860;2022-08-23T00:09:29;24.10;49.30
45868;DHT22;31582;45.490;7.860;2022-08-23T00:12:15;24.10;48.80
45868;DHT22;31582;45.490;7.860;2022-08-23T00:14:49;24.20;48.30
45868;DHT22;31582;45.490;7.860;2022-08-23T00:17:18;24.20;48.00
45868;DHT22;31582;45.490;7.860;2022-08-23T00:20:04;24.20;48.20
45868;DHT22;31582;45.490;7.860;2022-08-23T00:22:32;24.20;48.20
45868;DHT22;31582;45.490;7.860;2022-08-23T00:24:59;24.10;48.20
45868;DHT22;31582;45.490;7.860;2022-08-23T00:27:26;24.10;48.10
45868;DHT22;31582;45.490;7.860;2022-08-23T00:29:55;24.00;48.20
45868;DHT22;31582;45.490;7.860;2022-08-23T00:32:29;24.00;48.20
45868;DHT22;31582;45.490;7.860;2022-08-23T00:34:57;23.90;48.30
45868;DHT22;31582;45.490;7.860;2022-08-23T00:37:26;24.00;47.60
45868;DHT22;31582;45.490;7.860;2022-08-23T00:39:53;24.00;47.50
45868;DHT22;31582;45.490;7.860;2022-08-23T00:42:52;23.90;47.60
45868;DHT22;31582;45.490;7.860;2022-08-23T00:48:38;23.80;47.90
45868;DHT22;31582;45.490;7.860;2022-08-23T00:51:08;23.80;47.80
45868;DHT22;31582;45.490;7.860;2022-08-23T00:53:42;23.80;47.20
45868;DHT22;31582;45.490;7.860;2022-08-23T00:56:11;23.80;47.20
45868;DHT22;31582;45.490;7.860;2022-08-23T00:58:39;23.80;46.90
45868;DHT22;31582;45.490;7.860;2022-08-23T01:01:06;23.80;47.00
45868;DHT22;31582;45.490;7.860;2022-08-23T01:03:35;23.80;47.00
45868;DHT22;31582;45.490;7.860;2022-08-23T01:06:14;23.80;46.80
45868;DHT22;31582;45.490;7.860;2022-08-23T01:08:47;23.80;47.20
45868;DHT22;31582;45.490;7.860;2022-08-23T01:11:24;23.70;46.80
45868;DHT22;31582;45.490;7.860;2022-08-23T01:14:13;23.80;46.50
45868;DHT22;31582;45.490;7.860;2022-08-23T01:16:46;23.80;46.30
45868;DHT22;31582;45.490;7.860;2022-08-23T01:19:25;23.80;46.30
45868;DHT22;31582;45.490;7.860;2022-08-23T01:24:33;23.90;46.10
45868;DHT22;31582;45.490;7.860;2022-08-23T01:27:20;23.80;46.30
45868;DHT22;31582;45.490;7.860;2022-08-23T01:29:47;23.80;46.40
45868;DHT22;31582;45.490;7.860;2022-08-23T01:32:14;23.80;46.50
45868;DHT22;31582;45.490;7.860;2022-08-23T01:34:42;23.70;46.10
45868;DHT22;31582;45.490;7.860;2022-08-23T01:37:18;23.80;45.70
45868;DHT22;31582;45.490;7.860;2022-08-23T01:39:46;23.80;45.90
45868;DHT22;31582;45.490;7.860;2022-08-23T01:42:13;23.80;46.20
45868;DHT22;31582;45.490;7.860;2022-08-23T01:44:40;23.80;46.60
45868;DHT22;31582;45.490;7.860;2022-08-23T01:47:06;23.70;46.70
45868;DHT22;31582;45.490;7.860;2022-08-23T01:49:33;23.70;46.90
45868;DHT22;31582;45.490;7.860;2022-08-23T01:52:01;23.60;46.90
45868;DHT22;31582;45.490;7.860;2022-08-23T01:54:28;23.60;47.00
45868;DHT22;31582;45.490;7.860;2022-08-23T01:56:55;23.50;46.90
45868;DHT22;31582;45.490;7.860;2022-08-23T01:59:22;23.50;46.20
45868;DHT22;31582;45.490;7.860;2022-08-23T02:01:49;23.40;46.20
45868;DHT22;31582;45.490;7.860;2022-08-23T02:04:17;23.50;45.30
45868;DHT22;31582;45.490;7.860;2022-08-23T02:06:44;23.60;44.80
45868;DHT22;31582;45.490;7.860;2022-08-23T02:09:11;23.70;44.50
45868;DHT22;31582;45.490;7.860;2022-08-23T02:11:44;23.80;44.60
45868;DHT22;31582;45.490;7.860;2022-08-23T02:14:16;23.80;44.50
45868;DHT22;31582;45.490;7.860;2022-08-23T02:16:50;23.80;44.60
45868;DHT22;31582;45.490;7.860;2022-08-23T02:19:34;23.70;44.60
45868;DHT22;31582;45.490;7.860;2022-08-23T02:22:02;23.70;44.70
45868;DHT22;31582;45.490;7.860;2022-08-23T02:24:29;23.70;44.20
45868;DHT22;31582;45.490;7.860;2022-08-23T02:27:00;23.70;44.30
45868;DHT22;31582;45.490;7.860;2022-08-23T02:29:28;23.70;44.00
45868;DHT22;31582;45.490;7.860;2022-08-23T02:31:57;23.70;44.30
45868;DHT22;31582;45.490;7.860;2022-08-23T02:34:27;23.60;44.50
45868;DHT22;31582;45.490;7.860;2022-08-23T02:36:55;23.60;44.90
45868;DHT22;31582;45.490;7.860;2022-08-23T02:39:22;23.50;45.00
45868;DHT22;31582;45.490;7.860;2022-08-23T02:41:49;23.50;44.90
45868;DHT22;31582;45.490;7.860;2022-08-23T02:44:16;23.50;44.40
45868;DHT22;31582;45.490;7.860;2022-08-23T02:46:45;23.50;44.30
45868;DHT22;31582;45.490;7.860;2022-08-23T02:49:13;23.50;44.60
45868;DHT22;31582;45.490;7.860;2022-08-23T02:51:40;23.50;44.30
45868;DHT22;31582;45.490;7.860;2022-08-23T02:54:07;23.50;43.70
45868;DHT22;31582;45.490;7.860;2022-08-23T02:56:34;23.60;43.60
45868;DHT22;31582;45.490;7.860;2022-08-23T02:59:03;23.60;43.60
45868;DHT22;31582;45.490;7.860;2022-08-23T03:01:37;23.60;43.20
45868;DHT22;31582;45.490;7.860;2022-08-23T03:04:06;23.70;43.10
45868;DHT22;31582;45.490;7.860;2022-08-23T03:06:34;23.70;43.10
45868;DHT22;31582;45.490;7.860;2022-08-23T03:09:03;23.70;43.00
45868;DHT22;31582;45.490;7.860;2022-08-23T03:11:31;23.70;42.90
45868;DHT22;31582;45.490;7.860;2022-08-23T03:13:58;23.70;42.70
45868;DHT22;31582;45.490;7.860;2022-08-23T03:16:27;23.70;42.70
45868;DHT22;31582;45.490;7.860;2022-08-23T03:18:54;23.70;42.50
45868;DHT22;31582;45.490;7.860;2022-08-23T03:21:21;23.80;42.10
45868;DHT22;31582;45.490;7.860;2022-08-23T03:23:48;23.80;41.90
45868;DHT22;31582;45.490;7.860;2022-08-23T03:26:16;23.90;41.70
45868;DHT22;31582;45.490;7.860;2022-08-23T03:28:44;23.90;41.60
45868;DHT22;31582;45.490;7.860;2022-08-23T03:31:12;23.90;41.70
45868;DHT22;31582;45.490;7.860;2022-08-23T03:33:39;23.90;41.50
45868;DHT22;31582;45.490;7.860;2022-08-23T03:36:09;23.90;41.80
45868;DHT22;31582;45.490;7.860;2022-08-23T03:38:38;23.90;41.50
45868;DHT22;31582;45.490;7.860;2022-08-23T03:41:06;23.80;41.70
45868;DHT22;31582;45.490;7.860;2022-08-23T03:43:33;23.80;41.80
45868;DHT22;31582;45.490;7.860;2022-08-23T03:46:00;23.80;41.80
45868;DHT22;31582;45.490;7.860;2022-08-23T03:48:27;23.70;41.90
45868;DHT22;31582;45.490;7.860;2022-08-23T03:50:54;23.80;42.00
45868;DHT22;31582;45.490;7.860;2022-08-23T03:53:21;23.70;42.10
45868;DHT22;31582;45.490;7.860;2022-08-23T03:55:51;23.70;41.90
45868;DHT22;31582;45.490;7.860;2022-08-23T03:58:19;23.70;42.20
45868;DHT22;31582;45.490;7.860;2022-08-23T04:00:47;23.60;42.40
45868;DHT22;31582;45.490;7.860;2022-08-23T04:03:14;23.60;42.60
45868;DHT22;31582;45.490;7.860;2022-08-23T04:05:41;23.50;43.10
45868;DHT22;31582;45.490;7.860;2022-08-23T04:08:09;23.40;43.20
45868;DHT22;31582;45.490;7.860;2022-08-23T04:10:36;23.40;42.90
45868;DHT22;31582;45.490;7.860;2022-08-23T04:13:06;23.40;42.70
45868;DHT22;31582;45.490;7.860;2022-08-23T04:15:35;23.40;42.70
45868;DHT22;31582;45.490;7.860;2022-08-23T04:18:02;23.40;42.50
45868;DHT22;31582;45.490;7.860;2022-08-23T04:20:29;23.40;42.50
45868;DHT22;31582;45.490;7.860;2022-08-23T04:22:57;23.50;42.10
45868;DHT22;31582;45.490;7.860;2022-08-23T04:25:24;23.60;42.00
45868;DHT22;31582;45.490;7.860;2022-08-23T04:28:01;23.60;41.50
45868;DHT22;31582;45.490;7.860;2022-08-23T04:30:29;23.60;41.30
45868;DHT22;31582;45.490;7.860;2022-08-23T04:32:56;23.60;41.50
45868;DHT22;31582;45.490;7.860;2022-08-23T04:35:24;23.70;41.00
45868;DHT22;31582;45.490;7.860;2022-08-23T04:37:52;23.70;41.10
45868;DHT22;31582;45.490;7.860;2022-08-23T04:40:19;23.80;41.00
45868;DHT22;31582;45.490;7.860;2022-08-23T04:43:04;23.70;41.10
45868;DHT22;31582;45.490;7.860;2022-08-23T04:45:37;23.70;41.10
45868;DHT22;31582;45.490;7.860;2022-08-23T04:48:05;23.70;41.30
45868;DHT22;31582;45.490;7.860;2022-08-23T04:50:39;23.60;41.60
45868;DHT22;31582;45.490;7.860;2022-08-23T04:53:07;23.60;41.50
45868;DHT22;31582;45.490;7.860;2022-08-23T04:55:34;23.50;42.00
45868;DHT22;31582;45.490;7.860;2022-08-23T04:58:03;23.50;41.80
45868;DHT22;31582;45.490;7.860;2022-08-23T05:00:30;23.40;42.00
45868;DHT22;31582;45.490;7.860;2022-08-23T05:02:57;23.30;42.20
45868;DHT22;31582;45.490;7.860;2022-08-23T05:05:25;23.30;42.30
45868;DHT22;31582;45.490;7.860;2022-08-23T05:07:53;23.30;42.70
45868;DHT22;31582;45.490;7.860;2022-08-23T05:10:20;23.20;42.80
45868;DHT22;31582;45.490;7.860;2022-08-23T05:12:47;23.30;42.30
45868;DHT22;31582;45.490;7.860;2022-08-23T05:15:14;23.30;42.30
45868;DHT22;31582;45.490;7.860;2022-08-23T05:17:41;23.30;42.30
45868;DHT22;31582;45.490;7.860;2022-08-23T05:20:09;23.40;42.10
45868;DHT22;31582;45.490;7.860;2022-08-23T05:22:38;23.40;42.10
45868;DHT22;31582;45.490;7.860;2022-08-23T05:25:07;23.40;41.90
45868;DHT22;31582;45.490;7.860;2022-08-23T05:27:35;23.50;41.60
45868;DHT22;31582;45.490;7.860;2022-08-23T05:30:03;23.50;41.60
45868;DHT22;31582;45.490;7.860;2022-08-23T05:32:30;23.50;41.80
45868;DHT22;31582;45.490;7.860;2022-08-23T05:34:59;23.50;41.80
45868;DHT22;31582;45.490;7.860;2022-08-23T05:37:26;23.50;41.80
45868;DHT22;31582;45.490;7.860;2022-08-23T05:39:53;23.60;41.60
45868;DHT22;31582;45.490;7.860;2022-08-23T05:42:20;23.60;41.20
45868;DHT22;31582;45.490;7.860;2022-08-23T05:44:47;23.70;41.10
45868;DHT22;31582;45.490;7.860;2022-08-23T05:47:16;23.70;41.50
45868;DHT22;31582;45.490;7.860;2022-08-23T05:49:50;23.70;41.70
45868;DHT22;31582;45.490;7.860;2022-08-23T05:52:17;23.70;41.30
45868;DHT22;31582;45.490;7.860;2022-08-23T05:54:44;23.80;41.30
45868;DHT22;31582;45.490;7.860;2022-08-23T05:57:11;23.80;41.10
45868;DHT22;31582;45.490;7.860;2022-08-23T05:59:38;23.70;43.00
45868;DHT22;31582;45.490;7.860;2022-08-23T06:02:07;23.70;41.30
45868;DHT22;31582;45.490;7.860;2022-08-23T06:04:34;23.70;41.60
45868;DHT22;31582;45.490;7.860;2022-08-23T06:07:02;23.70;41.80
45868;DHT22;31582;45.490;7.860;2022-08-23T06:09:29;23.70;42.10
45868;DHT22;31582;45.490;7.860;2022-08-23T06:11:56;23.60;42.50
45868;DHT22;31582;45.490;7.860;2022-08-23T06:14:24;23.60;41.70
45868;DHT22;31582;45.490;7.860;2022-08-23T06:16:51;23.60;42.00
45868;DHT22;31582;45.490;7.860;2022-08-23T06:19:22;23.60;42.80
45868;DHT22;31582;45.490;7.860;2022-08-23T06:21:50;23.70;41.50
45868;DHT22;31582;45.490;7.860;2022-08-23T06:24:18;23.70;41.80
45868;DHT22;31582;45.490;7.860;2022-08-23T06:26:45;23.70;41.80
45868;DHT22;31582;45.490;7.860;2022-08-23T06:29:15;23.70;42.00
45868;DHT22;31582;45.490;7.860;2022-08-23T06:31:44;23.70;42.00
45868;DHT22;31582;45.490;7.860;2022-08-23T06:37:00;23.80;41.50
45868;DHT22;31582;45.490;7.860;2022-08-23T06:39:28;23.90;41.10
45868;DHT22;31582;45.490;7.860;2022-08-23T06:42:08;24.00;41.10
45868;DHT22;31582;45.490;7.860;2022-08-23T06:44:56;24.00;41.70
45868;DHT22;31582;45.490;7.860;2022-08-23T06:47:22;24.00;41.70
45868;DHT22;31582;45.490;7.860;2022-08-23T06:49:49;24.10;42.10
45868;DHT22;31582;45.490;7.860;2022-08-23T06:52:25;24.10;41.90
45868;DHT22;31582;45.490;7.860;2022-08-23T06:54:53;24.10;41.90
45868;DHT22;31582;45.490;7.860;2022-08-23T06:57:20;24.20;41.60
45868;DHT22;31582;45.490;7.860;2022-08-23T06:59:48;24.20;41.30
45868;DHT22;31582;45.490;7.860;2022-08-23T07:02:15;24.20;41.80
45868;DHT22;31582;45.490;7.860;2022-08-23T07:04:42;24.30;42.60
45868;DHT22;31582;45.490;7.860;2022-08-23T07:07:09;24.40;40.80
45868;DHT22;31582;45.490;7.860;2022-08-23T07:09:39;24.50;40.90
45868;DHT22;31582;45.490;7.860;2022-08-23T07:12:06;24.60;41.50
45868;DHT22;31582;45.490;7.860;2022-08-23T07:14:33;24.70;41.20
45868;DHT22;31582;45.490;7.860;2022-08-23T07:17:02;24.80;41.10
45868;DHT22;31582;45.490;7.860;2022-08-23T07:19:31;24.90;40.10
45868;DHT22;31582;45.490;7.860;2022-08-23T07:21:59;25.10;40.20
45868;DHT22;31582;45.490;7.860;2022-08-23T07:24:28;25.20;40.20
45868;DHT22;31582;45.490;7.860;2022-08-23T07:27:00;25.20;39.60
45868;DHT22;31582;45.490;7.860;2022-08-23T07:29:28;25.30;40.40
45868;DHT22;31582;45.490;7.860;2022-08-23T07:31:55;25.50;39.50
45868;DHT22;31582;45.490;7.860;2022-08-23T07:34:23;25.60;39.30
45868;DHT22;31582;45.490;7.860;2022-08-23T07:36:52;25.80;37.80
45868;DHT22;31582;45.490;7.860;2022-08-23T07:39:20;25.90;37.60
45868;DHT22;31582;45.490;7.860;2022-08-23T07:41:48;26.00;38.10
45868;DHT22;31582;45.490;7.860;2022-08-23T07:44:15;26.00;38.80
45868;DHT22;31582;45.490;7.860;2022-08-23T07:46:45;26.20;39.00
45868;DHT22;31582;45.490;7.860;2022-08-23T07:49:13;26.40;37.90
45868;DHT22;31582;45.490;7.860;2022-08-23T07:51:44;26.50;37.60
45868;DHT22;31582;45.490;7.860;2022-08-23T07:54:12;26.60;37.50
45868;DHT22;31582;45.490;7.860;2022-08-23T07:56:39;26.70;37.70
45868;DHT22;31582;45.490;7.860;2022-08-23T07:59:08;26.90;36.90
45868;DHT22;31582;45.490;7.860;2022-08-23T08:01:36;27.00;37.30
45868;DHT22;31582;45.490;7.860;2022-08-23T08:04:04;27.10;37.80
45868;DHT22;31582;45.490;7.860;2022-08-23T08:06:37;27.30;37.30
45868;DHT22;31582;45.490;7.860;2022-08-23T08:09:04;27.50;37.00
45868;DHT22;31582;45.490;7.860;2022-08-23T08:11:32;27.70;36.30
45868;DHT22;31582;45.490;7.860;2022-08-23T08:14:05;27.90;35.40
45868;DHT22;31582;45.490;7.860;2022-08-23T08:16:45;28.00;35.80
45868;DHT22;31582;45.490;7.860;2022-08-23T08:19:14;28.20;34.60
45868;DHT22;31582;45.490;7.860;2022-08-23T08:21:45;28.30;34.50
45868;DHT22;31582;45.490;7.860;2022-08-23T08:24:13;28.40;35.10
45868;DHT22;31582;45.490;7.860;2022-08-23T08:26:42;28.50;34.60
45868;DHT22;31582;45.490;7.860;2022-08-23T08:29:11;28.60;34.90
45868;DHT22;31582;45.490;7.860;2022-08-23T08:31:39;28.70;35.20
45868;DHT22;31582;45.490;7.860;2022-08-23T08:34:07;29.00;36.00
45868;DHT22;31582;45.490;7.860;2022-08-23T08:36:40;29.10;36.10
45868;DHT22;31582;45.490;7.860;2022-08-23T08:39:11;29.30;34.70
45868;DHT22;31582;45.490;7.860;2022-08-23T08:50:24;29.80;34.10
45868;DHT22;31582;45.490;7.860;2022-08-23T08:52:58;30.00;33.10
45868;DHT22;31582;45.490;7.860;2022-08-23T08:55:31;30.00;32.80
45868;DHT22;31582;45.490;7.860;2022-08-23T08:58:00;30.10;33.20
45868;DHT22;31582;45.490;7.860;2022-08-23T09:00:36;30.20;32.20
45868;DHT22;31582;45.490;7.860;2022-08-23T09:03:12;30.10;32.50
45868;DHT22;31582;45.490;7.860;2022-08-23T09:05:59;30.10;33.50
45868;DHT22;31582;45.490;7.860;2022-08-23T09:11:47;30.10;33.40
45868;DHT22;31582;45.490;7.860;2022-08-23T09:19:36;30.30;33.30
45868;DHT22;31582;45.490;7.860;2022-08-23T09:22:13;30.30;32.90
45868;DHT22;31582;45.490;7.860;2022-08-23T09:24:43;30.40;33.70
45868;DHT22;31582;45.490;7.860;2022-08-23T09:27:10;30.50;33.90
45868;DHT22;31582;45.490;7.860;2022-08-23T09:29:39;30.60;33.20
45868;DHT22;31582;45.490;7.860;2022-08-23T09:32:28;30.70;33.60
45868;DHT22;31582;45.490;7.860;2022-08-23T09:35:25;30.80;33.30
45868;DHT22;31582;45.490;7.860;2022-08-23T09:43:12;30.90;32.90
45868;DHT22;31582;45.490;7.860;2022-08-23T09:48:41;31.00;33.20
45868;DHT22;31582;45.490;7.860;2022-08-23T09:51:33;31.10;34.10
45868;DHT22;31582;45.490;7.860;2022-08-23T09:54:04;31.20;33.60
45868;DHT22;31582;45.490;7.860;2022-08-23T09:56:36;31.30;32.90
45868;DHT22;31582;45.490;7.860;2022-08-23T10:01:55;31.50;34.10
45868;DHT22;31582;45.490;7.860;2022-08-23T10:04:29;31.60;33.60
45868;DHT22;31582;45.490;7.860;2022-08-23T10:06:56;31.60;33.10
45868;DHT22;31582;45.490;7.860;2022-08-23T10:09:31;31.70;33.80
45868;DHT22;31582;45.490;7.860;2022-08-23T10:12:00;31.80;33.00
45868;DHT22;31582;45.490;7.860;2022-08-23T10:14:29;31.80;33.40
45868;DHT22;31582;45.490;7.860;2022-08-23T10:22:27;32.20;32.20
45868;DHT22;31582;45.490;7.860;2022-08-23T10:25:19;32.20;33.40
45868;DHT22;31582;45.490;7.860;2022-08-23T10:28:13;32.30;32.90
45868;DHT22;31582;45.490;7.860;2022-08-23T10:31:26;32.40;32.10
45868;DHT22;31582;45.490;7.860;2022-08-23T10:39:27;31.90;32.40
45868;DHT22;31582;45.490;7.860;2022-08-23T10:42:00;32.00;33.10
45868;DHT22;31582;45.490;7.860;2022-08-23T10:47:37;32.20;31.00
45868;DHT22;31582;45.490;7.860;2022-08-23T10:50:11;32.20;31.60
45868;DHT22;31582;45.490;7.860;2022-08-23T10:53:00;32.30;32.50
45868;DHT22;31582;45.490;7.860;2022-08-23T10:55:36;32.60;32.90
45868;DHT22;31582;45.490;7.860;2022-08-23T10:58:23;32.80;31.90
45868;DHT22;31582;45.490;7.860;2022-08-23T11:00:52;32.90;31.10
45868;DHT22;31582;45.490;7.860;2022-08-23T11:03:30;32.90;29.50
45868;DHT22;31582;45.490;7.860;2022-08-23T11:09:07;32.90;30.50
45868;DHT22;31582;45.490;7.860;2022-08-23T11:11:47;32.90;29.90
45868;DHT22;31582;45.490;7.860;2022-08-23T11:14:38;33.10;31.00
45868;DHT22;31582;45.490;7.860;2022-08-23T11:17:27;33.10;29.60
45868;DHT22;31582;45.490;7.860;2022-08-23T11:20:03;33.10;29.90
45868;DHT22;31582;45.490;7.860;2022-08-23T11:22:34;33.10;29.20
45868;DHT22;31582;45.490;7.860;2022-08-23T11:27:46;33.10;29.40
45868;DHT22;31582;45.490;7.860;2022-08-23T11:33:02;33.20;30.30
45868;DHT22;31582;45.490;7.860;2022-08-23T11:35:43;33.40;28.80
45868;DHT22;31582;45.490;7.860;2022-08-23T11:38:11;33.40;29.20
45868;DHT22;31582;45.490;7.860;2022-08-23T11:41:11;33.50;28.70
45868;DHT22;31582;45.490;7.860;2022-08-23T11:43:37;33.50;29.00
45868;DHT22;31582;45.490;7.860;2022-08-23T11:46:25;33.50;28.40
45868;DHT22;31582;45.490;7.860;2022-08-23T11:54:35;33.80;26.80
45868;DHT22;31582;45.490;7.860;2022-08-23T12:00:19;33.80;27.30
45868;DHT22;31582;45.490;7.860;2022-08-23T12:03:03;34.00;26.70
45868;DHT22;31582;45.490;7.860;2022-08-23T12:18:34;33.80;26.80
45868;DHT22;31582;45.490;7.860;2022-08-23T12:21:05;33.80;27.40
45868;DHT22;31582;45.490;7.860;2022-08-23T12:23:46;34.00;27.80
45868;DHT22;31582;45.490;7.860;2022-08-23T12:29:26;34.50;27.40
45868;DHT22;31582;45.490;7.860;2022-08-23T12:32:01;34.50;26.50
45868;DHT22;31582;45.490;7.860;2022-08-23T12:37:27;35.00;26.90
45868;DHT22;31582;45.490;7.860;2022-08-23T12:39:59;35.00;25.70
45868;DHT22;31582;45.490;7.860;2022-08-23T12:42:29;34.90;26.10
45868;DHT22;31582;45.490;7.860;2022-08-23T12:45:01;34.90;25.80
45868;DHT22;31582;45.490;7.860;2022-08-23T12:47:28;34.90;26.20
45868;DHT22;31582;45.490;7.860;2022-08-23T12:50:05;35.10;26.00
45868;DHT22;31582;45.490;7.860;2022-08-23T12:52:36;35.20;26.10
45868;DHT22;31582;45.490;7.860;2022-08-23T12:55:15;35.40;25.90
45868;DHT22;31582;45.490;7.860;2022-08-23T12:57:50;35.40;25.40
45868;DHT22;31582;45.490;7.860;2022-08-23T13:00:25;35.40;25.30
45868;DHT22;31582;45.490;7.860;2022-08-23T13:06:05;35.40;24.90
45868;DHT22;31582;45.490;7.860;2022-08-23T13:11:04;35.10;25.50
45868;DHT22;31582;45.490;7.860;2022-08-23T13:13:36;35.20;25.40
45868;DHT22;31582;45.490;7.860;2022-08-23T13:16:41;35.30;25.10
45868;DHT22;31582;45.490;7.860;2022-08-23T13:19:27;35.30;25.00
45868;DHT22;31582;45.490;7.860;2022-08-23T13:24:38;35.80;25.10
45868;DHT22;31582;45.490;7.860;2022-08-23T13:27:22;35.90;25.40
45868;DHT22;31582;45.490;7.860;2022-08-23T13:29:52;36.10;25.70
45868;DHT22;31582;45.490;7.860;2022-08-23T13:32:30;36.00;25.30
45868;DHT22;31582;45.490;7.860;2022-08-23T13:38:09;35.60;24.60
45868;DHT22;31582;45.490;7.860;2022-08-23T13:40:41;35.20;25.10
45868;DHT22;31582;45.490;7.860;2022-08-23T13:43:14;34.90;25.30
45868;DHT22;31582;45.490;7.860;2022-08-23T13:45:56;34.80;25.70
45868;DHT22;31582;45.490;7.860;2022-08-23T13:48:28;34.90;26.20
45868;DHT22;31582;45.490;7.860;2022-08-23T13:51:15;35.20;26.00
45868;DHT22;31582;45.490;7.860;2022-08-23T13:53:42;35.40;25.10
45868;DHT22;31582;45.490;7.860;2022-08-23T13:56:09;35.40;25.00
45868;DHT22;31582;45.490;7.860;2022-08-23T13:58:36;35.60;25.00
45868;DHT22;31582;45.490;7.860;2022-08-23T14:01:13;35.80;24.90
45868;DHT22;31582;45.490;7.860;2022-08-23T14:03:41;36.00;24.60
45868;DHT22;31582;45.490;7.860;2022-08-23T14:06:08;36.20;24.60
45868;DHT22;31582;45.490;7.860;2022-08-23T14:08:36;36.30;24.20
45868;DHT22;31582;45.490;7.860;2022-08-23T14:11:03;36.30;24.10
45868;DHT22;31582;45.490;7.860;2022-08-23T14:13:31;36.20;23.90
45868;DHT22;31582;45.490;7.860;2022-08-23T14:16:03;36.20;24.50
45868;DHT22;31582;45.490;7.860;2022-08-23T14:18:50;36.30;24.40
45868;DHT22;31582;45.490;7.860;2022-08-23T14:21:37;36.20;22.90
45868;DHT22;31582;45.490;7.860;2022-08-23T14:24:04;36.10;22.80
45868;DHT22;31582;45.490;7.860;2022-08-23T14:26:31;36.20;23.50
45868;DHT22;31582;45.490;7.860;2022-08-23T14:28:58;36.30;24.00
45868;DHT22;31582;45.490;7.860;2022-08-23T14:31:25;36.50;24.10
45868;DHT22;31582;45.490;7.860;2022-08-23T14:33:52;36.60;23.70
45868;DHT22;31582;45.490;7.860;2022-08-23T14:36:19;36.50;24.20
45868;DHT22;31582;45.490;7.860;2022-08-23T14:38:50;36.40;22.50
45868;DHT22;31582;45.490;7.860;2022-08-23T14:41:19;36.20;23.10
45868;DHT22;31582;45.490;7.860;2022-08-23T14:43:49;36.10;23.00
45868;DHT22;31582;45.490;7.860;2022-08-23T14:46:16;35.90;23.70
45868;DHT22;31582;45.490;7.860;2022-08-23T14:48:43;36.10;24.30
45868;DHT22;31582;45.490;7.860;2022-08-23T14:51:32;36.40;24.40
45868;DHT22;31582;45.490;7.860;2022-08-23T14:54:01;36.60;24.00
45868;DHT22;31582;45.490;7.860;2022-08-23T14:56:30;36.60;22.60
45868;DHT22;31582;45.490;7.860;2022-08-23T14:58:58;36.40;22.40
45868;DHT22;31582;45.490;7.860;2022-08-23T15:01:25;36.30;23.60
45868;DHT22;31582;45.490;7.860;2022-08-23T15:03:52;36.30;23.30
45868;DHT22;31582;45.490;7.860;2022-08-23T15:06:19;36.20;23.90
45868;DHT22;31582;45.490;7.860;2022-08-23T15:08:47;36.20;24.10
45868;DHT22;31582;45.490;7.860;2022-08-23T15:11:14;36.20;23.80
45868;DHT22;31582;45.490;7.860;2022-08-23T15:14:02;36.30;23.40
45868;DHT22;31582;45.490;7.860;2022-08-23T15:16:29;36.20;23.40
45868;DHT22;31582;45.490;7.860;2022-08-23T15:18:56;36.30;23.70
45868;DHT22;31582;45.490;7.860;2022-08-23T15:21:23;35.90;23.10
45868;DHT22;31582;45.490;7.860;2022-08-23T15:23:50;35.60;23.60
45868;DHT22;31582;45.490;7.860;2022-08-23T15:26:23;35.50;24.10
45868;DHT22;31582;45.490;7.860;2022-08-23T15:28:51;35.50;24.20
45868;DHT22;31582;45.490;7.860;2022-08-23T15:31:19;35.60;24.20
45868;DHT22;31582;45.490;7.860;2022-08-23T15:33:46;35.60;24.10
45868;DHT22;31582;45.490;7.860;2022-08-23T15:36:14;35.60;24.30
45868;DHT22;31582;45.490;7.860;2022-08-23T15:38:43;35.50;23.90
45868;DHT22;31582;45.490;7.860;2022-08-23T15:41:14;35.50;24.00
45868;DHT22;31582;45.490;7.860;2022-08-23T15:43:42;35.30;23.60
45868;DHT22;31582;45.490;7.860;2022-08-23T15:46:16;35.40;24.30
45868;DHT22;31582;45.490;7.860;2022-08-23T15:48:48;35.50;24.40
45868;DHT22;31582;45.490;7.860;2022-08-23T15:51:16;35.70;24.20
45868;DHT22;31582;45.490;7.860;2022-08-23T15:53:44;35.90;24.20
45868;DHT22;31582;45.490;7.860;2022-08-23T15:56:15;36.10;24.20
45868;DHT22;31582;45.490;7.860;2022-08-23T15:58:44;36.20;24.10
45868;DHT22;31582;45.490;7.860;2022-08-23T16:01:11;36.30;24.50
45868;DHT22;31582;45.490;7.860;2022-08-23T16:03:38;36.50;23.90
45868;DHT22;31582;45.490;7.860;2022-08-23T16:06:08;36.30;23.40
45868;DHT22;31582;45.490;7.860;2022-08-23T16:08:35;36.20;23.60
45868;DHT22;31582;45.490;7.860;2022-08-23T16:11:04;36.10;24.00
45868;DHT22;31582;45.490;7.860;2022-08-23T16:13:41;35.90;23.40
45868;DHT22;31582;45.490;7.860;2022-08-23T16:16:11;35.80;23.60
45868;DHT22;31582;45.490;7.860;2022-08-23T16:18:39;35.80;23.80
45868;DHT22;31582;45.490;7.860;2022-08-23T16:21:06;35.90;24.50
45868;DHT22;31582;45.490;7.860;2022-08-23T16:23:33;36.10;24.20
45868;DHT22;31582;45.490;7.860;2022-08-23T16:26:00;36.10;23.60
45868;DHT22;31582;45.490;7.860;2022-08-23T16:28:27;36.00;23.80
45868;DHT22;31582;45.490;7.860;2022-08-23T16:30:54;36.00;23.90
45868;DHT22;31582;45.490;7.860;2022-08-23T16:33:21;35.90;24.10
45868;DHT22;31582;45.490;7.860;2022-08-23T16:35:47;35.70;25.00
45868;DHT22;31582;45.490;7.860;2022-08-23T16:38:14;35.60;25.50
45868;DHT22;31582;45.490;7.860;2022-08-23T16:40:41;35.40;25.10
45868;DHT22;31582;45.490;7.860;2022-08-23T16:43:08;35.00;25.10
45868;DHT22;31582;45.490;7.860;2022-08-23T16:45:35;34.50;25.20
45868;DHT22;31582;45.490;7.860;2022-08-23T16:48:02;34.30;25.90
45868;DHT22;31582;45.490;7.860;2022-08-23T16:50:29;34.10;25.80
45868;DHT22;31582;45.490;7.860;2022-08-23T16:52:58;33.80;26.00
45868;DHT22;31582;45.490;7.860;2022-08-23T16:55:31;33.50;26.40
45868;DHT22;31582;45.490;7.860;2022-08-23T16:57:58;33.30;26.90
45868;DHT22;31582;45.490;7.860;2022-08-23T17:00:25;33.00;27.30
45868;DHT22;31582;45.490;7.860;2022-08-23T17:02:52;32.80;27.70
45868;DHT22;31582;45.490;7.860;2022-08-23T17:05:19;32.70;28.20
45868;DHT22;31582;45.490;7.860;2022-08-23T17:07:46;32.60;28.30
45868;DHT22;31582;45.490;7.860;2022-08-23T17:10:14;32.50;28.30
45868;DHT22;31582;45.490;7.860;2022-08-23T17:12:42;32.20;28.00
45868;DHT22;31582;45.490;7.860;2022-08-23T17:15:13;32.10;28.50
45868;DHT22;31582;45.490;7.860;2022-08-23T17:17:45;32.00;29.20
45868;DHT22;31582;45.490;7.860;2022-08-23T17:20:12;31.90;29.40
45868;DHT22;31582;45.490;7.860;2022-08-23T17:22:40;31.80;29.40
45868;DHT22;31582;45.490;7.860;2022-08-23T17:25:09;31.60;29.60
45868;DHT22;31582;45.490;7.860;2022-08-23T17:27:36;31.50;29.80
45868;DHT22;31582;45.490;7.860;2022-08-23T17:30:03;31.40;30.00
45868;DHT22;31582;45.490;7.860;2022-08-23T17:32:30;31.40;30.20